createdAt,value
2023-05-16T00:00:09.307Z,10.97
2023-05-16T00:02:39.990Z,9.13
2023-05-16T00:05:10.666Z,9.37
2023-05-16T00:07:39.407Z,9.10
2023-05-16T00:10:11.327Z,9.63
2023-05-16T00:12:40.864Z,12.53
2023-05-16T00:15:14.228Z,14.03
2023-05-16T00:17:43.821Z,11.80
2023-05-16T00:20:14.350Z,10.63
2023-05-16T00:22:43.031Z,9.70
2023-05-16T00:25:13.130Z,11.33
2023-05-16T00:27:41.851Z,13.63
2023-05-16T00:30:12.219Z,10.03
2023-05-16T00:32:41.138Z,10.40
2023-05-16T00:35:10.765Z,9.47
2023-05-16T00:37:40.158Z,9.90
2023-05-16T00:40:10.464Z,11.27
2023-05-16T00:42:41.047Z,10.27
2023-05-16T00:45:11.441Z,12.83
2023-05-16T00:47:40.478Z,13.80
2023-05-16T00:50:10.210Z,10.20
2023-05-16T00:52:39.128Z,14.70
2023-05-16T00:55:10.844Z,10.33
2023-05-16T00:57:41.326Z,12.60
2023-05-16T01:00:12.114Z,16.70
2023-05-16T01:02:41.280Z,10.13
2023-05-16T01:05:10.905Z,12.20
2023-05-16T01:07:39.652Z,12.27
2023-05-16T01:10:11.433Z,12.10
2023-05-16T01:12:59.068Z,11.47
2023-05-16T01:15:31.769Z,10.07
2023-05-16T01:18:13.715Z,11.30
2023-05-16T01:20:48.497Z,12.40
2023-05-16T01:23:36.680Z,11.67
2023-05-16T01:26:21.504Z,11.03
2023-05-16T01:28:52.669Z,11.77
2023-05-16T01:31:22.013Z,11.90
2023-05-16T01:33:51.405Z,12.60
2023-05-16T01:36:27.266Z,10.97
2023-05-16T01:39:12.804Z,12.97
2023-05-16T01:41:55.070Z,11.83
2023-05-16T01:44:34.777Z,10.60
2023-05-16T01:47:09.598Z,9.53
2023-05-16T01:49:47.677Z,11.70
2023-05-16T01:52:24.779Z,11.70
2023-05-16T01:54:59.034Z,13.20
2023-05-16T01:57:31.968Z,13.67
2023-05-16T02:00:00.681Z,11.03
2023-05-16T02:02:29.415Z,11.47
2023-05-16T02:04:58.096Z,12.93
2023-05-16T02:07:27.033Z,11.97
2023-05-16T02:09:55.764Z,10.37
2023-05-16T02:12:24.439Z,12.53
2023-05-16T02:14:54.547Z,12.47
2023-05-16T02:17:23.284Z,13.03
2023-05-16T02:19:52.346Z,11.73
2023-05-16T02:22:21.387Z,10.73
2023-05-16T02:24:50.088Z,13.83
2023-05-16T02:27:21.345Z,14.77
2023-05-16T02:29:49.955Z,11.83
2023-05-16T02:32:20.145Z,11.50
2023-05-16T02:34:48.932Z,14.37
2023-05-16T02:37:17.601Z,15.43
2023-05-16T02:39:46.190Z,14.40
2023-05-16T02:42:14.881Z,13.20
2023-05-16T02:44:43.699Z,14.87
2023-05-16T02:47:12.394Z,16.20
2023-05-16T02:49:42.435Z,12.37
2023-05-16T02:52:11.871Z,13.10
2023-05-16T02:54:41.716Z,14.53
2023-05-16T02:57:10.739Z,11.63
2023-05-16T02:59:39.772Z,13.30
2023-05-16T03:02:10.803Z,13.07
2023-05-16T03:04:41.372Z,14.87
2023-05-16T03:07:10.435Z,14.23
2023-05-16T03:09:39.451Z,12.93
2023-05-16T03:12:09.168Z,18.00
2023-05-16T03:14:38.257Z,15.87
2023-05-16T03:17:06.938Z,14.63
2023-05-16T03:19:35.967Z,15.83
2023-05-16T03:22:06.629Z,14.97
2023-05-16T03:24:35.703Z,13.90
2023-05-16T03:27:05.848Z,12.23
2023-05-16T03:29:35.376Z,14.50
2023-05-16T03:32:04.240Z,14.40
2023-05-16T03:34:33.014Z,14.83
2023-05-16T03:37:01.775Z,16.67
2023-05-16T03:39:31.944Z,14.73
2023-05-16T03:42:00.655Z,14.47
2023-05-16T03:44:29.373Z,18.07
2023-05-16T03:46:58.386Z,19.70
2023-05-16T03:49:29.347Z,16.60
2023-05-16T03:52:25.130Z,15.83
2023-05-16T03:56:02.705Z,16.70
2023-05-16T03:58:31.590Z,18.77
2023-05-16T04:01:01.048Z,15.30
2023-05-16T04:03:30.416Z,14.37
2023-05-16T04:06:01.991Z,26.77
2023-05-16T04:08:31.370Z,18.57
2023-05-16T04:11:38.826Z,17.27
2023-05-16T04:14:45.045Z,18.50
2023-05-16T04:17:23.904Z,19.07
2023-05-16T04:19:52.612Z,18.70
2023-05-16T04:22:23.301Z,15.43
2023-05-16T04:25:41.456Z,19.37
2023-05-16T04:28:12.018Z,19.43
2023-05-16T04:30:40.662Z,18.40
2023-05-16T04:33:28.180Z,19.90
2023-05-16T04:35:59.442Z,18.20
2023-05-16T04:38:28.448Z,16.27
2023-05-16T04:40:57.079Z,14.90
2023-05-16T04:43:28.120Z,19.07
2023-05-16T04:45:59.088Z,17.03
2023-05-16T04:48:28.101Z,17.50
2023-05-16T04:50:57.284Z,16.77
2023-05-16T04:53:26.128Z,18.13
2023-05-16T04:55:56.152Z,16.77
2023-05-16T04:58:26.430Z,17.20
2023-05-16T05:00:56.819Z,17.13
2023-05-16T05:03:25.819Z,15.27
2023-05-16T05:05:54.438Z,16.97
2023-05-16T05:08:23.825Z,17.53
2023-05-16T05:10:52.413Z,18.40
2023-05-16T05:13:21.155Z,18.30
2023-05-16T05:15:52.443Z,19.90
2023-05-16T05:18:22.247Z,17.30
2023-05-16T05:20:52.756Z,18.40
2023-05-16T05:23:21.639Z,20.23
2023-05-16T05:25:50.321Z,24.03
2023-05-16T05:28:19.091Z,22.57
2023-05-16T05:30:48.478Z,19.73
2023-05-16T05:33:19.872Z,17.27
2023-05-16T05:35:49.017Z,20.30
2023-05-16T05:38:17.645Z,19.50
2023-05-16T05:40:46.435Z,19.30
2023-05-16T05:43:15.123Z,21.23
2023-05-16T05:45:44.376Z,24.27
2023-05-16T05:48:14.188Z,22.70
2023-05-16T05:50:44.393Z,22.90
2023-05-16T05:53:13.100Z,25.40
2023-05-16T05:55:42.353Z,28.13
2023-05-16T05:58:11.147Z,23.07
2023-05-16T06:00:39.859Z,24.53
2023-05-16T06:03:08.554Z,23.73
2023-05-16T06:05:37.337Z,28.27
2023-05-16T06:08:07.435Z,23.60
2023-05-16T06:10:36.145Z,26.13
2023-05-16T06:13:04.773Z,26.47
2023-05-16T06:15:33.534Z,28.33
2023-05-16T06:18:02.239Z,26.50
2023-05-16T06:20:30.953Z,30.07
2023-05-16T06:23:01.137Z,32.13
2023-05-16T06:25:31.751Z,26.80
2023-05-16T06:28:00.416Z,27.53
2023-05-16T06:30:29.185Z,29.97
2023-05-16T06:32:58.150Z,30.23
2023-05-16T06:35:27.386Z,32.33
2023-05-16T06:37:56.180Z,35.87
2023-05-16T06:40:24.878Z,34.43
2023-05-16T06:42:54.970Z,37.50
2023-05-16T06:45:23.663Z,39.30
2023-05-16T06:47:53.548Z,38.73
2023-05-16T06:50:23.352Z,39.13
2023-05-16T06:52:52.070Z,38.23
2023-05-16T06:55:20.906Z,39.27
2023-05-16T06:57:49.596Z,41.27
2023-05-16T07:00:21.549Z,38.67
2023-05-16T07:02:50.501Z,37.93
2023-05-16T07:05:19.388Z,32.57
2023-05-16T07:07:49.591Z,29.93
2023-05-16T07:10:18.330Z,28.17
2023-05-16T07:12:48.149Z,27.77
2023-05-16T07:15:18.497Z,23.80
2023-05-16T07:17:47.215Z,26.87
2023-05-16T07:20:16.000Z,26.33
2023-05-16T07:22:44.740Z,23.57
2023-05-16T07:25:14.702Z,23.20
2023-05-16T07:27:45.247Z,24.57
2023-05-16T07:30:15.935Z,22.60
2023-05-16T07:32:46.122Z,23.70
2023-05-16T07:35:14.893Z,23.13
2023-05-16T07:37:43.686Z,20.97
2023-05-16T07:40:13.729Z,21.07
2023-05-16T07:42:42.421Z,21.47
2023-05-16T07:45:11.731Z,20.13
2023-05-16T07:47:40.655Z,18.90
2023-05-16T07:50:12.018Z,19.47
2023-05-16T07:52:40.776Z,18.90
2023-05-16T07:55:10.990Z,18.70
2023-05-16T07:57:39.801Z,17.23
2023-05-16T08:00:10.660Z,16.37
2023-05-16T08:02:42.801Z,16.00
2023-05-16T08:05:13.117Z,17.73
2023-05-16T08:07:41.844Z,15.27
2023-05-16T08:10:13.287Z,16.90
2023-05-16T08:12:42.990Z,17.80
2023-05-16T08:15:12.485Z,19.27
2023-05-16T08:17:41.231Z,17.97
2023-05-16T08:20:13.030Z,21.03
2023-05-16T08:22:41.718Z,16.30
2023-05-16T08:25:11.119Z,18.80
2023-05-16T08:27:39.778Z,18.87
2023-05-16T08:30:11.441Z,22.90
2023-05-16T08:32:40.502Z,24.83
2023-05-16T08:35:11.137Z,21.77
2023-05-16T08:37:41.431Z,20.87
2023-05-16T08:40:12.309Z,21.63
2023-05-16T08:42:42.827Z,21.63
2023-05-16T08:45:14.581Z,23.10
2023-05-16T08:47:46.677Z,21.07
2023-05-16T08:50:17.663Z,21.53
2023-05-16T08:52:53.306Z,21.77
2023-05-16T08:55:23.359Z,23.00
2023-05-16T08:57:52.552Z,19.43
2023-05-16T09:00:23.148Z,20.23
2023-05-16T09:02:52.061Z,16.93
2023-05-16T09:05:21.100Z,15.80
2023-05-16T09:07:51.362Z,16.50
2023-05-16T09:10:20.934Z,14.37
2023-05-16T09:12:49.672Z,12.60
2023-05-16T09:15:21.545Z,14.97
2023-05-16T09:17:50.634Z,11.67
2023-05-16T09:20:21.390Z,11.87
2023-05-16T09:22:56.672Z,11.83
2023-05-16T09:25:31.035Z,11.23
2023-05-16T09:28:03.597Z,11.60
2023-05-16T09:30:35.369Z,10.57
2023-05-16T09:33:04.408Z,11.77
2023-05-16T09:38:06.606Z,10.30
2023-05-16T09:40:35.507Z,11.97
2023-05-16T09:43:06.401Z,9.73
2023-05-16T09:45:36.619Z,11.60
2023-05-16T09:48:08.392Z,10.63
2023-05-16T09:50:38.792Z,10.77
2023-05-16T09:53:09.063Z,11.70
2023-05-16T09:55:37.766Z,9.07
2023-05-16T09:58:06.634Z,10.20
2023-05-16T10:00:36.048Z,11.00
2023-05-16T10:03:06.135Z,9.77
2023-05-16T10:05:36.934Z,10.30
2023-05-16T10:08:09.611Z,10.50
2023-05-16T10:10:39.824Z,7.70
2023-05-16T10:13:29.705Z,8.90
2023-05-16T10:16:01.251Z,10.13
2023-05-16T10:18:34.314Z,10.80
2023-05-16T10:21:10.455Z,9.07
2023-05-16T10:23:44.300Z,10.50
2023-05-16T10:26:18.439Z,9.87
2023-05-16T10:28:49.519Z,10.53
2023-05-16T10:31:21.525Z,11.13
2023-05-16T10:33:54.510Z,8.27
2023-05-16T10:36:23.767Z,10.53
2023-05-16T10:38:54.207Z,8.77
2023-05-16T10:41:23.672Z,10.60
2023-05-16T10:44:01.308Z,9.90
2023-05-16T10:46:30.349Z,9.03
2023-05-16T10:48:59.288Z,10.33
2023-05-16T10:51:37.905Z,7.50
2023-05-16T10:54:10.198Z,7.23
2023-05-16T10:56:39.661Z,8.37
2023-05-16T10:59:26.530Z,8.07
2023-05-16T11:01:57.676Z,10.50
2023-05-16T11:04:51.655Z,10.10
2023-05-16T11:07:22.496Z,8.13
2023-05-16T11:10:16.006Z,7.63
2023-05-16T11:12:47.871Z,7.83
2023-05-16T11:15:25.145Z,7.53
2023-05-16T11:18:06.992Z,8.30
2023-05-16T11:20:38.025Z,8.87
2023-05-16T11:23:27.606Z,8.40
2023-05-16T11:26:00.715Z,9.13
2023-05-16T11:28:30.250Z,8.60
2023-05-16T11:31:01.155Z,7.70
2023-05-16T11:33:35.681Z,10.13
2023-05-16T11:38:44.070Z,6.10
2023-05-16T11:41:15.608Z,6.63
2023-05-16T11:43:46.281Z,7.43
2023-05-16T11:46:17.698Z,6.70
2023-05-16T11:48:51.008Z,5.63
2023-05-16T11:51:21.434Z,9.03
2023-05-16T11:53:52.297Z,5.87
2023-05-16T11:56:23.492Z,7.33
2023-05-16T11:58:52.924Z,4.77
2023-05-16T12:01:23.348Z,6.73
2023-05-16T12:03:58.344Z,8.30
2023-05-16T12:06:29.388Z,7.50
2023-05-16T12:09:00.749Z,8.03
2023-05-16T12:11:29.539Z,8.00
2023-05-16T12:13:58.460Z,9.33
2023-05-16T12:16:28.862Z,7.23
2023-05-16T12:18:57.909Z,7.43
2023-05-16T12:21:27.198Z,9.93
2023-05-16T12:23:57.831Z,7.63
2023-05-16T12:26:30.875Z,7.50
2023-05-16T12:29:01.052Z,8.83
2023-05-16T12:31:34.529Z,6.13
2023-05-16T12:34:03.360Z,6.63
2023-05-16T12:36:35.941Z,8.17
2023-05-16T12:39:09.218Z,7.23
2023-05-16T12:41:43.267Z,5.33
2023-05-16T12:44:17.448Z,7.70
2023-05-16T12:47:38.230Z,7.77
2023-05-16T12:50:14.180Z,7.30
2023-05-16T12:52:51.451Z,5.03
2023-05-16T12:55:22.581Z,5.80
2023-05-16T12:57:52.446Z,11.63
2023-05-16T13:00:23.505Z,5.70
2023-05-16T13:02:54.059Z,5.17
2023-05-16T13:05:23.634Z,6.23
2023-05-16T13:07:52.810Z,7.23
2023-05-16T13:10:21.578Z,6.67
2023-05-16T13:12:50.278Z,7.13
2023-05-16T13:15:20.125Z,6.20
2023-05-16T13:17:49.042Z,5.67
2023-05-16T13:20:19.229Z,7.80
2023-05-16T13:22:47.984Z,7.37
2023-05-16T13:25:16.665Z,7.57
2023-05-16T13:27:46.384Z,6.37
2023-05-16T13:30:15.267Z,5.07
2023-05-16T13:32:44.039Z,5.67
2023-05-16T13:35:13.473Z,8.33
2023-05-16T13:37:43.949Z,6.80
2023-05-16T13:40:13.296Z,4.87
2023-05-16T13:42:42.090Z,6.50
2023-05-16T13:45:11.296Z,6.90
2023-05-16T13:47:40.035Z,8.67
2023-05-16T13:50:10.607Z,7.27
2023-05-16T13:52:40.389Z,5.60
2023-05-16T13:55:11.265Z,7.87
2023-05-16T13:57:40.538Z,8.27
2023-05-16T14:02:45.115Z,6.77
2023-05-16T14:05:13.857Z,6.40
2023-05-16T14:07:44.232Z,6.70
2023-05-16T14:10:15.638Z,6.77
2023-05-16T14:12:44.305Z,9.17
2023-05-16T14:15:14.347Z,7.87
2023-05-16T14:17:43.085Z,6.80
2023-05-16T14:20:15.481Z,5.90
2023-05-16T14:22:44.190Z,9.07
2023-05-16T14:25:14.245Z,8.90
2023-05-16T14:27:42.951Z,6.53
2023-05-16T14:30:14.253Z,5.57
2023-05-16T14:32:43.068Z,6.50
2023-05-16T14:35:12.185Z,9.00
2023-05-16T14:37:41.474Z,6.50
2023-05-16T14:40:10.930Z,7.47
2023-05-16T14:42:41.250Z,7.70
2023-05-16T14:45:10.977Z,7.27
2023-05-16T14:47:42.460Z,8.73
2023-05-16T14:50:12.737Z,8.37
2023-05-16T14:52:41.858Z,8.30
2023-05-16T14:55:10.623Z,6.20
2023-05-16T14:57:42.113Z,7.27
2023-05-16T15:00:15.352Z,10.43
2023-05-16T15:02:44.876Z,9.87
2023-05-16T15:05:13.630Z,9.50
2023-05-16T15:07:42.546Z,8.23
2023-05-16T15:10:12.200Z,7.60
2023-05-16T15:12:43.436Z,7.47
2023-05-16T15:15:15.601Z,6.80
2023-05-16T15:17:45.330Z,9.23
2023-05-16T15:20:14.168Z,8.60
2023-05-16T15:22:43.062Z,9.27
2023-05-16T15:25:13.064Z,6.40
2023-05-16T15:27:45.827Z,8.63
2023-05-16T15:30:15.534Z,5.37
2023-05-16T15:32:44.720Z,6.90
2023-05-16T15:35:13.433Z,10.20
2023-05-16T15:37:45.874Z,8.67
2023-05-16T15:40:16.420Z,7.17
2023-05-16T15:42:46.446Z,10.03
2023-05-16T15:45:15.123Z,5.87
2023-05-16T15:47:44.011Z,8.93
2023-05-16T15:50:13.564Z,7.97
2023-05-16T15:57:31.883Z,16.37
2023-05-16T16:00:01.992Z,10.73
2023-05-16T16:02:45.571Z,9.13
2023-05-16T16:05:14.828Z,9.40
2023-05-16T16:07:44.426Z,9.00
2023-05-16T16:10:14.168Z,7.07
2023-05-16T16:12:42.845Z,12.03
2023-05-16T16:15:13.518Z,7.87
2023-05-16T16:17:42.184Z,5.93
2023-05-16T16:20:12.205Z,8.00
2023-05-16T16:22:40.860Z,9.13
2023-05-16T16:25:10.246Z,8.30
2023-05-16T16:27:39.015Z,6.90
2023-05-16T16:30:09.962Z,6.10
2023-05-16T16:32:40.362Z,9.77
2023-05-16T16:35:11.753Z,9.07
2023-05-16T16:37:43.005Z,7.47
2023-05-16T16:40:17.874Z,10.97
2023-05-16T16:42:46.888Z,9.30
2023-05-16T16:45:15.679Z,6.33
2023-05-16T16:47:46.102Z,9.43
2023-05-16T16:50:15.066Z,10.07
2023-05-16T16:52:43.756Z,7.23
2023-05-16T16:55:13.110Z,7.13
2023-05-16T16:57:42.462Z,8.53
2023-05-16T17:00:14.194Z,8.80
2023-05-16T17:02:43.344Z,8.23
2023-05-16T17:05:13.745Z,11.27
2023-05-16T17:07:42.430Z,5.87
2023-05-16T17:10:12.037Z,8.37
2023-05-16T17:12:46.963Z,9.33
2023-05-16T17:15:15.811Z,9.00
2023-05-16T17:17:44.790Z,11.23
2023-05-16T17:20:15.164Z,7.47
2023-05-16T17:22:44.810Z,6.43
2023-05-16T17:25:13.575Z,12.37
2023-05-16T17:27:43.314Z,7.37
2023-05-16T17:30:13.369Z,5.87
2023-05-16T17:32:42.101Z,7.80
2023-05-16T17:35:10.759Z,8.73
2023-05-16T17:37:41.475Z,8.87
2023-05-16T17:40:16.810Z,8.47
2023-05-16T17:42:47.045Z,7.67
2023-05-16T17:45:17.130Z,7.03
2023-05-16T17:47:46.256Z,8.60
2023-05-16T17:50:14.932Z,8.77
2023-05-16T17:52:45.522Z,5.67
2023-05-16T17:55:14.823Z,9.23
2023-05-16T17:57:43.845Z,8.40
2023-05-16T18:00:15.269Z,8.33
2023-05-16T18:02:44.596Z,4.77
2023-05-16T18:05:16.590Z,7.10
2023-05-16T18:07:46.985Z,8.43
2023-05-16T18:10:15.809Z,5.77
2023-05-16T18:12:44.886Z,9.03
2023-05-16T18:15:13.720Z,5.00
2023-05-16T18:17:42.799Z,6.33
2023-05-16T18:20:13.185Z,6.87
2023-05-16T18:22:43.727Z,5.90
2023-05-16T18:25:14.017Z,8.27
2023-05-16T18:27:42.722Z,6.37
2023-05-16T18:30:13.994Z,8.97
2023-05-16T18:32:43.738Z,9.90
2023-05-16T18:35:13.243Z,7.97
2023-05-16T18:37:44.117Z,10.30
2023-05-16T18:40:15.716Z,20.30
2023-05-16T18:42:45.246Z,10.70
2023-05-16T18:45:13.981Z,13.67
2023-05-16T18:47:42.749Z,8.80
2023-05-16T18:50:12.532Z,8.50
2023-05-16T18:52:44.786Z,7.13
2023-05-16T18:55:15.284Z,7.23
2023-05-16T18:57:45.434Z,5.43
2023-05-16T19:00:15.276Z,8.70
2023-05-16T19:02:44.045Z,6.17
2023-05-16T19:05:21.850Z,4.70
2023-05-16T19:07:53.909Z,6.47
2023-05-16T19:10:25.772Z,6.67
2023-05-16T19:12:54.669Z,7.63
2023-05-16T19:15:23.524Z,2.97
2023-05-16T19:17:52.318Z,6.17
2023-05-16T19:20:21.373Z,6.40
2023-05-16T19:22:50.658Z,7.83
2023-05-16T19:25:19.303Z,8.57
2023-05-16T19:27:49.485Z,4.70
2023-05-16T19:30:18.425Z,6.27
2023-05-16T19:32:55.146Z,5.17
2023-05-16T19:35:24.450Z,6.77
2023-05-16T19:37:53.112Z,7.87
2023-05-16T19:40:21.902Z,4.00
2023-05-16T19:42:52.162Z,5.20
2023-05-16T19:45:20.928Z,8.70
2023-05-16T19:47:49.817Z,5.00
2023-05-16T19:50:19.416Z,4.90
2023-05-16T19:52:48.273Z,8.53
2023-05-16T19:55:17.097Z,5.27
2023-05-16T19:57:46.044Z,6.00
2023-05-16T20:00:17.304Z,6.13
2023-05-16T20:02:46.189Z,4.63
2023-05-16T20:05:19.949Z,2.90
2023-05-16T20:07:49.026Z,5.00
2023-05-16T20:10:19.791Z,4.73
2023-05-16T20:12:50.040Z,5.73
2023-05-16T20:15:20.261Z,8.17
2023-05-16T20:17:49.356Z,7.27
2023-05-16T20:20:18.167Z,7.47
2023-05-16T20:22:46.930Z,4.13
2023-05-16T20:25:15.950Z,6.17
2023-05-16T20:27:44.860Z,7.33
2023-05-16T20:30:15.245Z,6.47
2023-05-16T20:32:45.639Z,5.50
2023-05-16T20:35:15.198Z,4.97
2023-05-16T20:37:44.933Z,6.40
2023-05-16T20:40:14.175Z,5.80
2023-05-16T20:42:43.077Z,8.63
2023-05-16T20:45:12.717Z,4.03
2023-05-16T20:47:41.591Z,2.67
2023-05-16T20:50:12.652Z,7.10
2023-05-16T20:52:41.444Z,5.20
2023-05-16T20:55:10.817Z,6.07
2023-05-16T20:57:41.682Z,4.60
2023-05-16T21:00:14.025Z,3.97
2023-05-16T21:02:42.832Z,3.73
2023-05-16T21:05:24.198Z,4.83
2023-05-16T21:08:01.628Z,4.40
2023-05-16T21:10:30.821Z,4.73
2023-05-16T21:12:59.552Z,7.03
2023-05-16T21:15:28.829Z,4.40
2023-05-16T21:17:58.132Z,5.60
2023-05-16T21:20:30.234Z,4.73
2023-05-16T21:22:59.089Z,4.23
2023-05-16T21:25:27.991Z,3.87
2023-05-16T21:27:56.805Z,5.23
2023-05-16T21:30:26.889Z,3.27
2023-05-16T21:32:55.766Z,5.63
2023-05-16T21:35:25.304Z,4.13
2023-05-16T21:37:55.522Z,3.23
2023-05-16T21:40:26.027Z,5.13
2023-05-16T21:42:54.874Z,5.33
2023-05-16T21:45:23.820Z,6.23
2023-05-16T21:47:52.611Z,5.37
2023-05-16T21:50:21.652Z,2.40
2023-05-16T21:52:50.480Z,4.00
2023-05-16T21:55:20.700Z,4.70
2023-05-16T21:57:49.422Z,7.63
2023-05-16T22:00:19.275Z,3.63
2023-05-16T22:02:48.726Z,4.97
2023-05-16T22:05:19.270Z,5.80
2023-05-16T22:07:48.232Z,2.70
2023-05-16T22:10:18.605Z,5.60
2023-05-16T22:12:48.820Z,3.13
2023-05-16T22:15:17.576Z,3.67
2023-05-16T22:17:48.193Z,5.07
2023-05-16T22:20:17.229Z,4.00
2023-05-16T22:22:46.079Z,3.17
2023-05-16T22:25:18.019Z,2.33
2023-05-16T22:27:48.354Z,2.37
2023-05-16T22:30:17.184Z,4.57
2023-05-16T22:32:47.125Z,3.90
2023-05-16T22:35:16.193Z,5.93
2023-05-16T22:37:44.928Z,3.00
2023-05-16T22:40:13.843Z,3.40
2023-05-16T22:42:42.591Z,1.83
2023-05-16T22:45:13.137Z,3.57
2023-05-16T22:47:41.974Z,4.57
2023-05-16T22:50:12.563Z,3.80
2023-05-16T22:52:42.018Z,2.37
2023-05-16T22:55:11.827Z,2.50
2023-05-16T22:57:40.572Z,2.03
2023-05-16T23:00:12.631Z,5.00
2023-05-16T23:02:41.702Z,4.27
2023-05-16T23:05:10.888Z,2.50
2023-05-16T23:07:39.549Z,2.77
2023-05-16T23:10:10.461Z,5.10
2023-05-16T23:12:39.209Z,2.03
2023-05-16T23:15:10.448Z,2.50
2023-05-16T23:17:40.867Z,4.07
2023-05-16T23:20:10.563Z,4.27
2023-05-16T23:22:39.337Z,2.63
2023-05-16T23:25:10.159Z,2.77
2023-05-16T23:27:38.888Z,5.10
2023-05-16T23:30:09.783Z,3.07
2023-05-16T23:32:40.029Z,2.97
2023-05-16T23:35:09.772Z,4.03
2023-05-16T23:37:38.559Z,6.07
2023-05-16T23:40:09.507Z,4.03
2023-05-16T23:42:39.344Z,2.20
2023-05-16T23:45:10.250Z,3.33
2023-05-16T23:47:40.466Z,3.80
2023-05-16T23:50:10.561Z,2.53
2023-05-16T23:52:39.382Z,2.50
2023-05-16T23:55:09.516Z,4.27
2023-05-16T23:57:38.687Z,5.00
